Time;durP1;ratioP1;P1;durP2;ratioP2;P2;SDS_P1;SDS_P2;PMS_P1;PMS_P2;Temp;Humidity;BMP_temperature;BMP_pressure;BME280_temperature;BME280_humidity;BME280_pressure;Samples;Min_cycle;Max_cycle;Signal;HPM_P1;HPM_P2
2021/04/22 00:00:22;;;;;;;20.60;4.95;;;;;;;4.72;100.00;102374.56;3566897;39;20104;-63
2021/04/22 00:02:49;;;;;;;16.00;4.68;;;;;;;4.80;100.00;102376.94;3571025;40;20062;-64
2021/04/22 00:05:29;;;;;;;21.00;4.15;;;;;;;4.79;100.00;102377.00;3572527;40;20918;-65
2021/04/22 00:07:56;;;;;;;16.75;4.22;;;;;;;4.80;100.00;102381.41;3574790;40;20041;-64
2021/04/22 00:10:27;;;;;;;18.90;3.88;;;;;;;4.79;100.00;102377.88;3573968;40;20069;-65
2021/04/22 00:12:54;;;;;;;20.23;5.40;;;;;;;4.65;100.00;102377.53;3567849;40;20055;-65
2021/04/22 00:15:21;;;;;;;18.95;4.00;;;;;;;4.65;100.00;102375.75;3576257;40;20405;-64
2021/04/22 00:17:51;;;;;;;17.60;4.65;;;;;;;4.62;100.00;102370.53;3571907;40;20073;-64
2021/04/22 00:20:17;;;;;;;15.30;4.22;;;;;;;4.60;100.00;102375.06;3570044;40;20255;-63
2021/04/22 00:22:43;;;;;;;14.55;3.50;;;;;;;4.64;100.00;102384.69;3570404;39;20124;-63
2021/04/22 00:25:11;;;;;;;15.07;3.90;;;;;;;4.65;100.00;102385.53;3569552;40;20227;-65
2021/04/22 00:27:37;;;;;;;18.02;4.38;;;;;;;4.73;100.00;102378.13;3575184;40;20076;-64
2021/04/22 00:30:05;;;;;;;18.48;3.92;;;;;;;4.73;100.00;102383.47;3570401;40;20458;-65
2021/04/22 00:32:31;;;;;;;15.27;3.83;;;;;;;4.69;100.00;102384.50;3567001;39;20040;-64
2021/04/22 00:34:58;;;;;;;17.20;3.92;;;;;;;4.62;100.00;102386.53;3571894;40;20056;-66
2021/04/22 00:37:24;;;;;;;12.07;3.90;;;;;;;4.59;100.00;102367.13;3568638;40;20033;-64
2021/04/22 00:39:50;;;;;;;16.00;4.10;;;;;;;4.70;100.00;102386.25;3571764;40;20048;-64
2021/04/22 00:42:16;;;;;;;15.70;4.72;;;;;;;4.62;100.00;102386.53;3572159;40;20096;-64
2021/04/22 00:44:46;;;;;;;15.57;4.32;;;;;;;4.61;100.00;102389.25;3575371;40;20039;-64
2021/04/22 00:47:13;;;;;;;12.50;3.97;;;;;;;4.64;100.00;102390.00;3573657;40;20110;-65
2021/04/22 00:49:40;;;;;;;12.95;3.92;;;;;;;4.57;100.00;102396.50;3572020;40;20055;-65
2021/04/22 00:52:07;;;;;;;16.42;3.97;;;;;;;4.55;100.00;102401.91;3561429;40;20380;-65
2021/04/22 00:54:34;;;;;;;20.50;4.05;;;;;;;4.74;100.00;102395.84;3575861;40;20044;-64
2021/04/22 00:57:00;;;;;;;12.52;3.58;;;;;;;4.77;100.00;102389.53;3585165;39;20049;-65
2021/04/22 00:59:26;;;;;;;15.50;4.00;;;;;;;4.79;100.00;102399.22;3580155;39;20044;-64
2021/04/22 01:01:52;;;;;;;18.05;4.20;;;;;;;4.81;100.00;102397.34;3580947;39;20051;-63
2021/04/22 01:04:18;;;;;;;22.23;4.50;;;;;;;4.78;100.00;102397.47;3580167;39;20044;-65
2021/04/22 01:06:45;;;;;;;23.30;4.70;;;;;;;4.86;100.00;102397.19;3576874;39;20076;-63
2021/04/22 01:09:14;;;;;;;19.55;4.53;;;;;;;4.81;100.00;102394.66;3579178;39;20058;-64
2021/04/22 01:11:41;;;;;;;17.90;4.50;;;;;;;4.89;100.00;102399.72;3574565;39;20076;-64
2021/04/22 01:14:07;;;;;;;13.30;4.00;;;;;;;4.87;100.00;102396.22;3573819;39;20060;-64
2021/04/22 01:16:33;;;;;;;19.05;4.55;;;;;;;4.74;100.00;102398.50;3575281;39;20067;-65
2021/04/22 01:18:59;;;;;;;14.70;3.60;;;;;;;4.74;100.00;102395.84;3578184;39;20052;-65
2021/04/22 01:21:26;;;;;;;13.77;3.53;;;;;;;4.82;100.00;102403.56;3575023;40;21206;-64
2021/04/22 01:23:54;;;;;;;18.13;4.20;;;;;;;4.80;100.00;102403.63;3577383;39;20044;-66
2021/04/22 01:26:22;;;;;;;18.00;4.60;;;;;;;4.69;100.00;102395.16;3578514;40;20072;-65
2021/04/22 01:28:48;;;;;;;18.23;4.20;;;;;;;4.81;100.00;102397.34;3581845;39;20070;-65
2021/04/22 01:31:14;;;;;;;16.00;4.13;;;;;;;4.79;100.00;102403.69;3571950;39;20055;-64
2021/04/22 01:33:41;;;;;;;13.60;4.13;;;;;;;4.68;100.00;102406.75;3575691;40;20423;-64
2021/04/22 01:36:08;;;;;;;14.75;4.00;;;;;;;4.74;100.00;102406.50;3580656;39;20065;-64
2021/04/22 01:38:36;;;;;;;12.13;3.35;;;;;;;4.83;100.00;102408.84;3575363;39;20045;-64
2021/04/22 01:41:03;;;;;;;13.52;3.70;;;;;;;4.86;100.00;102413.19;3571704;39;20046;-63
2021/04/22 01:43:30;;;;;;;15.38;4.22;;;;;;;4.88;100.00;102419.31;3576256;39;20631;-65
2021/04/22 01:45:57;;;;;;;14.85;3.80;;;;;;;4.89;100.00;102416.59;3576163;40;20050;-64
2021/04/22 01:48:24;;;;;;;18.30;4.03;;;;;;;4.98;100.00;102419.84;3577928;39;20389;-64
2021/04/22 01:50:50;;;;;;;12.80;3.33;;;;;;;5.20;100.00;102417.16;3578806;40;20040;-63
2021/04/22 01:53:16;;;;;;;12.02;3.67;;;;;;;4.97;100.00;102412.75;3576878;39;20048;-64
2021/04/22 01:55:45;;;;;;;12.45;3.70;;;;;;;4.98;100.00;102414.50;3578625;39;20048;-64
2021/04/22 01:58:13;;;;;;;13.30;3.90;;;;;;;4.95;100.00;102419.94;3574414;40;20673;-63
2021/04/22 02:00:42;;;;;;;14.87;3.30;;;;;;;4.91;100.00;102413.84;3578300;39;20086;-64
2021/04/22 02:06:01;;;;;;;15.23;3.75;;;;;;;4.85;100.00;102414.09;3574121;22;20925;-64
2021/04/22 02:08:27;;;;;;;14.98;3.60;;;;;;;4.80;100.00;102411.63;3547636;40;20086;-63
2021/04/22 02:10:54;;;;;;;13.75;3.80;;;;;;;4.66;100.00;102420.16;3549220;40;20049;-65
2021/04/22 02:13:22;;;;;;;16.80;3.72;;;;;;;4.62;100.00;102418.53;3551203;40;20680;-64
2021/04/22 02:18:39;;;;;;;8.40;3.50;;;;;;;4.75;100.00;102413.59;3591576;23;20044;-64
2021/04/22 02:21:05;;;;;;;13.30;3.22;;;;;;;4.75;100.00;102416.25;3568278;40;20088;-65
2021/04/22 02:23:31;;;;;;;16.40;3.25;;;;;;;4.87;100.00;102422.91;3576259;39;20051;-63
2021/04/22 02:25:58;;;;;;;15.70;3.65;;;;;;;4.92;100.00;102426.28;3578401;39;20098;-64
2021/04/22 02:28:24;;;;;;;10.60;2.88;;;;;;;4.85;100.00;102420.31;3575430;39;20043;-64
2021/04/22 02:30:50;;;;;;;15.30;3.58;;;;;;;4.83;100.00;102421.28;3568671;39;20058;-65
2021/04/22 02:33:19;;;;;;;10.38;3.05;;;;;;;4.81;100.00;102424.00;3574015;39;20054;-64
2021/04/22 02:35:49;;;;;;;12.77;3.28;;;;;;;4.90;100.00;102429.00;3587430;39;20048;-65
2021/04/22 02:38:16;;;;;;;12.80;3.08;;;;;;;4.80;100.00;102427.63;3575980;39;20411;-64
2021/04/22 02:40:44;;;;;;;16.38;3.13;;;;;;;4.80;100.00;102432.06;3575552;39;20064;-64
2021/04/22 02:43:13;;;;;;;12.88;2.97;;;;;;;4.89;100.00;102427.25;3574346;39;20129;-63
2021/04/22 02:48:30;;;;;;;14.23;3.28;;;;;;;4.76;100.00;102430.47;3584087;23;20045;-63
2021/04/22 02:50:57;;;;;;;17.00;3.50;;;;;;;4.64;100.00;102437.13;3565067;40;20056;-64
2021/04/22 02:53:24;;;;;;;10.82;2.60;;;;;;;4.63;100.00;102430.94;3565255;40;20302;-64
2021/04/22 02:55:51;;;;;;;16.77;3.25;;;;;;;4.55;100.00;102436.56;3567617;40;20129;-62
2021/04/22 02:58:19;;;;;;;10.23;3.17;;;;;;;4.54;100.00;102436.63;3574740;40;20064;-63
2021/04/22 03:00:46;;;;;;;13.18;3.20;;;;;;;4.51;100.00;102437.59;3560183;40;20047;-64
2021/04/22 03:03:13;;;;;;;13.10;3.20;;;;;;;4.44;100.00;102445.91;3566551;40;20089;-64
2021/04/22 03:05:39;;;;;;;15.45;3.53;;;;;;;4.43;100.00;102441.50;3570260;40;20048;-63
2021/04/22 03:08:06;;;;;;;10.68;2.85;;;;;;;4.47;100.00;102435.97;3553386;40;20998;-64
2021/04/22 03:10:33;;;;;;;15.80;3.70;;;;;;;4.43;100.00;102434.38;3553450;40;20476;-65
2021/04/22 03:12:59;;;;;;;15.25;3.10;;;;;;;4.50;100.00;102433.19;3570332;40;20448;-64
2021/04/22 03:15:27;;;;;;;11.85;3.40;;;;;;;4.59;100.00;102428.44;3564602;40;20049;-65
2021/04/22 03:17:53;;;;;;;9.68;2.88;;;;;;;4.72;100.00;102427.03;3566178;40;21665;-63
2021/04/22 03:20:20;;;;;;;16.20;3.30;;;;;;;4.70;100.00;102431.59;3564142;40;20063;-63
2021/04/22 03:22:47;;;;;;;15.98;3.38;;;;;;;4.69;100.00;102435.16;3563711;40;20060;-64
2021/04/22 03:25:15;;;;;;;13.02;2.85;;;;;;;4.63;100.00;102435.41;3564253;40;20061;-64
2021/04/22 03:27:42;;;;;;;18.02;3.85;;;;;;;4.69;100.00;102440.50;3563652;40;20056;-64
2021/04/22 03:30:11;;;;;;;9.50;3.17;;;;;;;4.84;100.00;102429.22;3568776;40;20125;-64
2021/04/22 03:32:38;;;;;;;10.02;3.10;;;;;;;4.90;100.00;102429.00;3565234;40;20060;-64
2021/04/22 03:35:06;;;;;;;12.07;2.80;;;;;;;4.87;100.00;102429.13;3556701;40;20095;-65
2021/04/22 03:37:32;;;;;;;17.60;3.28;;;;;;;4.98;100.00;102435.84;3565765;40;20299;-64
2021/04/22 03:39:59;;;;;;;15.82;4.05;;;;;;;4.89;100.00;102437.94;3569057;40;20383;-64
2021/04/22 03:42:25;;;;;;;9.75;2.60;;;;;;;4.91;100.00;102432.53;3563854;40;21378;-65
2021/04/22 03:44:51;;;;;;;10.43;2.95;;;;;;;4.98;100.00;102438.50;3572712;40;20420;-64
2021/04/22 03:47:17;;;;;;;13.35;3.20;;;;;;;5.06;100.00;102433.72;3557508;40;20044;-64
2021/04/22 03:49:44;;;;;;;15.18;3.10;;;;;;;5.01;100.00;102433.06;3570389;39;20045;-65
2021/04/22 03:52:10;;;;;;;17.70;3.38;;;;;;;5.06;100.00;102433.72;3568848;39;20127;-65
2021/04/22 03:54:37;;;;;;;10.43;3.05;;;;;;;5.15;100.00;102436.00;3578165;39;20144;-64
2021/04/22 03:57:05;;;;;;;12.95;2.80;;;;;;;5.08;100.00;102430.06;3582412;39;20040;-65
2021/04/22 03:59:31;;;;;;;8.93;2.60;;;;;;;5.07;100.00;102431.00;3644678;23;20080;-65
2021/04/22 04:01:57;;;;;;;15.85;2.92;;;;;;;5.18;100.00;102437.69;3576378;39;20548;-65
2021/04/22 04:04:23;;;;;;;10.90;2.50;;;;;;;5.06;100.00;102428.38;3567833;39;20060;-64
2021/04/22 04:06:50;;;;;;;16.27;2.92;;;;;;;4.99;100.00;102432.22;3568783;40;20568;-65
2021/04/22 04:09:16;;;;;;;12.88;3.22;;;;;;;5.05;100.00;102440.88;3571855;40;20062;-66
2021/04/22 04:11:42;;;;;;;9.15;2.90;;;;;;;5.09;100.00;102438.94;3574563;39;20050;-64
2021/04/22 04:14:08;;;;;;;12.60;3.50;;;;;;;5.01;100.00;102435.72;3582421;39;20032;-64
2021/04/22 04:16:34;;;;;;;16.98;3.40;;;;;;;5.09;100.00;102444.28;3580613;39;20044;-64
2021/04/22 04:19:00;;;;;;;13.40;2.60;;;;;;;5.21;100.00;102437.56;3572196;39;20078;-66
2021/04/22 04:21:26;;;;;;;11.75;2.88;;;;;;;5.19;100.00;102440.31;3575284;39;20571;-66
2021/04/22 04:23:53;;;;;;;9.55;2.40;;;;;;;5.25;100.00;102440.03;3570293;39;20976;-65
2021/04/22 04:26:19;;;;;;;7.70;2.42;;;;;;;5.26;100.00;102443.59;3575781;39;20129;-63
2021/04/22 04:28:45;;;;;;;11.43;3.10;;;;;;;5.17;100.00;102450.19;3574303;39;20320;-64
2021/04/22 04:31:11;;;;;;;13.45;3.30;;;;;;;5.20;100.00;102450.06;3561493;39;20052;-63
2021/04/22 04:33:37;;;;;;;12.05;2.33;;;;;;;5.30;100.00;102441.66;3562138;40;20054;-64
2021/04/22 04:36:04;;;;;;;13.40;2.50;;;;;;;5.48;100.00;102446.25;3562497;40;20057;-64
2021/04/22 04:38:30;;;;;;;12.48;2.72;;;;;;;5.52;100.00;102453.22;3566351;39;22037;-64
2021/04/22 04:40:57;;;;;;;11.90;2.80;;;;;;;5.57;100.00;102453.00;3575426;39;20060;-64
2021/04/22 04:43:23;;;;;;;14.77;2.97;;;;;;;5.54;100.00;102447.81;3573791;39;20048;-64
2021/04/22 04:45:49;;;;;;;12.77;2.50;;;;;;;5.57;100.00;102455.69;3559408;39;20064;-65
2021/04/22 04:48:15;;;;;;;11.57;2.67;;;;;;;5.58;100.00;102455.63;3566036;40;20124;-63
2021/04/22 04:50:41;;;;;;;8.40;2.17;;;;;;;5.66;100.00;102463.31;3574616;40;20416;-64
2021/04/22 04:53:07;;;;;;;11.93;2.60;;;;;;;5.71;100.00;102460.44;3581584;39;20068;-65
2021/04/22 04:55:33;;;;;;;13.18;2.47;;;;;;;5.58;100.00;102462.75;3577087;39;20052;-63
2021/04/22 05:00:37;;;;;;;13.82;2.20;;;;;;;5.70;100.00;102467.59;3600945;22;20056;-65
2021/04/22 05:03:03;;;;;;;18.75;3.55;;;;;;;5.62;100.00;102464.34;3565476;40;20056;-64
2021/04/22 05:05:29;;;;;;;14.88;2.88;;;;;;;5.70;100.00;102466.72;3567612;40;20134;-65
2021/04/22 05:07:55;;;;;;;13.25;2.63;;;;;;;5.66;100.00;102465.97;3568073;39;20040;-64
2021/04/22 05:10:21;;;;;;;13.45;2.60;;;;;;;5.70;100.00;102470.25;3563918;40;25602;-65
2021/04/22 05:12:47;;;;;;;12.77;2.42;;;;;;;5.69;100.00;102473.00;3566791;40;20421;-64
2021/04/22 05:15:14;;;;;;;12.13;2.58;;;;;;;5.84;100.00;102480.34;3571188;39;20355;-64
2021/04/22 05:17:41;;;;;;;11.00;2.40;;;;;;;5.84;100.00;102480.34;3570975;40;20422;-64
2021/04/22 05:20:08;;;;;;;10.43;2.47;;;;;;;5.84;100.00;102477.69;3566048;40;20482;-64
2021/04/22 05:22:34;;;;;;;11.80;2.60;;;;;;;5.69;100.00;102486.34;3565362;40;20039;-63
2021/04/22 05:25:01;;;;;;;10.77;2.83;;;;;;;5.65;100.00;102492.75;3563846;39;20415;-64
2021/04/22 05:27:27;;;;;;;13.40;2.75;;;;;;;5.75;100.00;102486.94;3571885;39;20054;-65
2021/04/22 05:29:53;;;;;;;10.32;2.60;;;;;;;5.92;100.00;102485.38;3576677;39;20430;-64
2021/04/22 05:32:19;;;;;;;13.88;2.55;;;;;;;5.91;100.00;102492.53;3577264;39;20085;-66
2021/04/22 05:34:46;;;;;;;10.40;2.80;;;;;;;6.03;100.00;102492.97;3572392;39;20476;-66
2021/04/22 05:37:12;;;;;;;13.50;2.60;;;;;;;5.91;100.00;102497.84;3572763;39;20168;-66
2021/04/22 05:39:38;;;;;;;9.32;2.63;;;;;;;6.06;100.00;102507.06;3577049;39;20402;-65
2021/04/22 05:42:04;;;;;;;9.95;2.85;;;;;;;6.16;100.00;102504.88;3584288;39;20141;-65
2021/04/22 05:44:30;;;;;;;9.27;2.60;;;;;;;6.15;100.00;102511.13;3582564;39;20037;-64
2021/04/22 05:46:56;;;;;;;9.52;2.38;;;;;;;6.16;100.00;102512.88;3582352;39;21457;-66
2021/04/22 05:49:22;;;;;;;10.13;2.10;;;;;;;6.25;100.00;102507.13;3584955;39;20483;-64
2021/04/22 05:51:49;;;;;;;12.90;2.72;;;;;;;6.38;100.00;102511.94;3589659;39;20028;-65
2021/04/22 05:54:15;;;;;;;10.85;2.75;;;;;;;6.27;100.00;102510.63;3590408;39;20046;-64
2021/04/22 05:56:41;;;;;;;11.65;2.50;;;;;;;6.42;100.00;102506.38;3590694;40;20396;-64
2021/04/22 05:59:07;;;;;;;12.80;2.70;;;;;;;6.38;100.00;102517.31;3590554;39;20056;-63
2021/04/22 06:01:33;;;;;;;10.85;2.70;;;;;;;6.49;100.00;102520.34;3592974;40;20040;-65
2021/04/22 06:03:59;;;;;;;13.50;3.03;;;;;;;6.52;99.52;102520.19;3593162;39;20040;-63
2021/04/22 06:06:25;;;;;;;15.27;2.50;;;;;;;6.59;100.00;102519.00;3591799;39;20063;-65
2021/04/22 06:08:52;;;;;;;12.07;2.40;;;;;;;6.60;100.00;102526.09;3592462;39;20321;-64
2021/04/22 06:11:18;;;;;;;16.08;2.65;;;;;;;6.68;100.00;102524.88;3592658;39;20062;-63
2021/04/22 06:13:44;;;;;;;20.63;3.25;;;;;;;6.71;100.00;102519.38;3589026;39;20041;-64
2021/04/22 06:16:10;;;;;;;12.07;2.60;;;;;;;6.85;100.00;102522.31;3586227;39;20051;-65
2021/04/22 06:18:36;;;;;;;17.60;2.97;;;;;;;7.04;99.52;102521.44;3580341;40;20311;-62
2021/04/22 06:21:03;;;;;;;12.48;3.25;;;;;;;6.93;100.00;102530.81;3583116;40;20037;-66
2021/04/22 06:23:29;;;;;;;15.73;2.83;;;;;;;6.71;100.00;102532.75;3581471;40;20064;-65
2021/04/22 06:25:56;;;;;;;10.10;2.95;;;;;;;6.82;100.00;102536.69;3582771;40;20064;-65
2021/04/22 06:28:22;;;;;;;10.95;3.00;;;;;;;6.98;99.53;102544.88;3582027;40;20049;-65
2021/04/22 06:30:49;;;;;;;12.60;2.70;;;;;;;6.98;98.89;102539.53;3582369;40;20080;-64
2021/04/22 06:33:15;;;;;;;9.40;3.22;;;;;;;6.86;100.00;102545.47;3581311;40;20036;-66
2021/04/22 06:35:41;;;;;;;9.10;3.13;;;;;;;7.10;98.57;102543.44;3582534;40;20188;-65
2021/04/22 06:38:07;;;;;;;12.27;2.60;;;;;;;7.05;97.33;102549.94;3581638;40;20056;-65
2021/04/22 06:40:33;;;;;;;11.10;2.97;;;;;;;6.92;98.41;102546.97;3581431;40;20067;-64
2021/04/22 06:43:00;;;;;;;12.27;3.20;;;;;;;7.13;96.30;102547.78;3582683;40;20406;-65
2021/04/22 06:45:26;;;;;;;11.55;2.90;;;;;;;6.99;96.32;102551.97;3582147;40;20153;-67
2021/04/22 06:47:52;;;;;;;10.63;2.95;;;;;;;7.33;96.02;102545.03;3582259;40;20040;-65
2021/04/22 06:50:22;;;;;;;12.13;3.05;;;;;;;7.20;95.33;102557.28;3581100;40;20040;-63
2021/04/22 06:52:48;;;;;;;10.98;2.70;;;;;;;7.32;93.17;102558.50;3581930;40;20118;-65
2021/04/22 06:55:17;;;;;;;14.55;2.50;;;;;;;7.44;92.94;102557.03;3581919;40;20056;-64
2021/04/22 06:57:43;;;;;;;16.77;2.83;;;;;;;7.54;90.28;102559.19;3582315;40;20357;-65
2021/04/22 07:00:14;;;;;;;7.68;2.33;;;;;;;7.70;89.98;102563.81;3581583;40;20300;-66
2021/04/22 07:02:40;;;;;;;7.38;2.47;;;;;;;7.70;91.10;102564.69;3581399;40;20413;-64
2021/04/22 07:05:08;;;;;;;11.07;2.75;;;;;;;7.62;84.36;102571.34;3581808;40;20060;-63
2021/04/22 07:07:34;;;;;;;9.90;2.63;;;;;;;7.68;84.36;102566.53;3581327;40;20379;-65
2021/04/22 07:10:00;;;;;;;10.85;2.75;;;;;;;7.63;84.96;102573.94;3581209;40;20047;-64
2021/04/22 07:12:27;;;;;;;10.32;3.00;;;;;;;7.51;86.15;102583.47;3581127;40;20051;-64
2021/04/22 07:14:54;;;;;;;9.88;2.65;;;;;;;7.69;85.09;102570.97;3581740;40;20041;-65
2021/04/22 07:17:21;;;;;;;9.15;2.67;;;;;;;8.04;82.46;102572.88;3581768;40;20040;-62
2021/04/22 07:19:47;;;;;;;10.45;2.90;;;;;;;8.27;80.60;102571.66;3580963;40;20393;-64
2021/04/22 07:22:13;;;;;;;9.30;2.55;;;;;;;8.51;79.90;102571.38;3581714;40;20100;-64
2021/04/22 07:24:39;;;;;;;9.68;2.78;;;;;;;8.69;77.16;102573.09;3581829;40;20107;-65
2021/04/22 07:27:06;;;;;;;11.55;3.15;;;;;;;8.55;77.32;102578.31;3581279;40;20047;-65
2021/04/22 07:29:32;;;;;;;10.65;3.08;;;;;;;8.49;79.64;102578.66;3582192;40;20056;-64
2021/04/22 07:31:58;;;;;;;12.13;2.70;;;;;;;8.32;81.76;102584.84;3581916;40;20137;-64
2021/04/22 07:34:25;;;;;;;10.18;3.55;;;;;;;8.44;81.22;102580.69;3579482;40;20055;-65
2021/04/22 07:36:51;;;;;;;11.85;2.90;;;;;;;8.66;81.75;102581.31;3581094;40;20383;-65
2021/04/22 07:39:17;;;;;;;13.13;2.85;;;;;;;8.65;80.27;102584.06;3581992;40;20082;-65
2021/04/22 07:41:43;;;;;;;13.65;3.10;;;;;;;8.66;78.77;102581.31;3581326;40;20045;-65
2021/04/22 07:44:09;;;;;;;11.35;2.92;;;;;;;8.59;79.81;102585.25;3580782;40;20149;-65
2021/04/22 07:46:35;;;;;;;11.40;2.80;;;;;;;8.53;80.69;102590.97;3581478;40;20045;-64
2021/04/22 07:49:01;;;;;;;7.68;2.63;;;;;;;8.38;81.99;102593.44;3581887;40;20056;-65
2021/04/22 07:51:28;;;;;;;15.50;3.00;;;;;;;8.23;85.32;102596.94;3581848;40;20048;-65
2021/04/22 07:53:54;;;;;;;12.50;3.15;;;;;;;8.31;84.09;102600.06;3581396;40;20062;-65
2021/04/22 07:56:20;;;;;;;8.93;2.97;;;;;;;8.19;86.72;102601.56;3581450;40;20073;-64
2021/04/22 07:58:46;;;;;;;7.70;3.05;;;;;;;8.12;86.63;102613.56;3580084;40;20062;-65
2021/04/22 08:01:12;;;;;;;9.07;2.70;;;;;;;8.16;86.27;102603.56;3581229;40;20041;-66
2021/04/22 08:03:38;;;;;;;9.80;2.50;;;;;;;8.15;86.95;102607.16;3579395;40;20066;-64
2021/04/22 08:06:04;;;;;;;11.18;3.20;;;;;;;8.30;86.75;102610.88;3580582;40;20133;-64
2021/04/22 08:08:31;;;;;;;13.57;3.10;;;;;;;8.29;84.65;102607.34;3578495;40;20057;-65
2021/04/22 08:10:58;;;;;;;11.60;2.75;;;;;;;8.33;87.09;102611.63;3579805;40;20072;-64
2021/04/22 08:13:24;;;;;;;9.68;3.10;;;;;;;8.40;84.21;102621.06;3581149;40;20052;-65
2021/04/22 08:15:52;;;;;;;15.27;3.78;;;;;;;7.98;89.86;102616.03;3582093;40;20102;-64
2021/04/22 08:18:19;;;;;;;13.23;3.45;;;;;;;8.06;89.63;102621.91;3582580;40;20142;-65
2021/04/22 08:20:46;;;;;;;9.27;2.97;;;;;;;8.13;89.33;102619.81;3581283;40;20055;-65
2021/04/22 08:23:13;;;;;;;11.18;2.72;;;;;;;8.12;87.55;102618.06;3584718;39;20040;-65
2021/04/22 08:25:42;;;;;;;8.27;2.70;;;;;;;8.44;85.34;102618.25;3589367;39;20400;-65
2021/04/22 08:28:09;;;;;;;8.85;2.63;;;;;;;8.50;83.25;102624.19;3589575;39;20086;-65
2021/04/22 08:30:43;;;;;;;11.98;3.38;;;;;;;8.48;85.05;102625.19;3589829;39;20063;-66
2021/04/22 08:33:09;;;;;;;7.50;2.60;;;;;;;8.56;80.35;102614.94;3589542;39;20044;-66
2021/04/22 08:35:35;;;;;;;14.05;3.13;;;;;;;8.45;78.71;102630.72;3590522;39;20414;-67
2021/04/22 08:38:01;;;;;;;9.77;3.13;;;;;;;8.34;77.13;102628.56;3592016;39;20050;-65
2021/04/22 08:40:27;;;;;;;7.32;2.67;;;;;;;8.48;75.76;102630.56;3592020;40;20048;-65
2021/04/22 08:42:54;;;;;;;10.57;2.95;;;;;;;8.24;74.26;102622.78;3591428;40;20317;-66
2021/04/22 08:45:21;;;;;;;12.93;2.83;;;;;;;8.66;77.11;102626.09;3588926;40;20468;-66
2021/04/22 08:47:47;;;;;;;10.05;3.05;;;;;;;9.50;74.92;102622.47;3589675;40;20056;-65
2021/04/22 08:50:16;;;;;;;10.52;2.70;;;;;;;9.84;73.63;102617.88;3588725;39;20047;-64
2021/04/22 08:52:42;;;;;;;8.57;2.50;;;;;;;10.03;69.55;102615.84;3586795;39;20047;-64
2021/04/22 08:55:11;;;;;;;9.82;2.88;;;;;;;9.66;69.54;102623.34;3590548;39;20080;-65
2021/04/22 08:57:37;;;;;;;11.48;2.58;;;;;;;10.05;68.70;102623.84;3589954;39;20067;-65
2021/04/22 09:00:07;;;;;;;8.70;2.58;;;;;;;10.00;70.77;102622.28;3589869;39;20050;-65
2021/04/22 09:02:33;;;;;;;14.18;2.92;;;;;;;9.82;66.92;102631.41;3590423;39;20150;-65
2021/04/22 09:04:59;;;;;;;12.73;3.17;;;;;;;9.70;67.15;102627.59;3590013;39;20045;-66
2021/04/22 09:07:25;;;;;;;7.20;2.45;;;;;;;9.75;70.50;102630.88;3588761;39;20407;-65
2021/04/22 09:09:51;;;;;;;12.43;2.65;;;;;;;10.22;68.63;102633.59;3590023;39;20379;-65
2021/04/22 09:12:19;;;;;;;8.38;2.58;;;;;;;9.87;69.24;102633.84;3589882;39;20047;-66
2021/04/22 09:14:53;;;;;;;8.70;2.70;;;;;;;9.58;69.04;102634.50;3589809;39;20055;-64
2021/04/22 09:20:13;;;;;;;8.48;2.70;;;;;;;9.67;67.29;102638.50;3622189;23;20407;-66
2021/04/22 09:22:42;;;;;;;10.15;2.05;;;;;;;9.91;66.42;102627.31;3589434;39;20061;-65
2021/04/22 09:25:14;;;;;;;10.65;3.25;;;;;;;10.42;67.34;102630.63;3589065;39;20085;-66
2021/04/22 09:27:40;;;;;;;11.93;2.60;;;;;;;10.50;65.77;102644.50;3579821;40;20041;-65
2021/04/22 09:30:08;;;;;;;9.88;2.50;;;;;;;10.47;62.74;102639.31;3579163;40;20473;-64
2021/04/22 09:32:36;;;;;;;8.10;2.22;;;;;;;10.61;64.38;102629.53;3589257;39;20428;-65
2021/04/22 09:35:06;;;;;;;10.25;2.85;;;;;;;11.13;63.75;102642.50;3590678;40;20193;-65
2021/04/22 09:37:39;;;;;;;5.85;2.45;;;;;;;11.30;62.14;102632.47;3590765;40;20051;-64
2021/04/22 09:40:18;;;;;;;7.78;2.85;;;;;;;11.25;64.22;102645.34;3590358;40;20040;-65
2021/04/22 09:42:44;;;;;;;12.18;2.60;;;;;;;10.83;61.73;102646.09;3591659;40;20076;-65
2021/04/22 09:45:11;;;;;;;6.57;2.80;;;;;;;10.62;64.20;102648.28;3590480;40;20040;-65
2021/04/22 09:47:37;;;;;;;7.53;2.45;;;;;;;10.14;67.46;102647.50;3587733;40;20059;-65
2021/04/22 09:50:10;;;;;;;7.18;2.22;;;;;;;10.67;62.51;102659.66;3592841;39;20404;-65
2021/04/22 09:52:39;;;;;;;6.75;2.17;;;;;;;10.56;64.16;102654.03;3593856;39;20295;-67
2021/04/22 09:55:07;;;;;;;;;;;;;;;10.24;63.72;102647.84;3593030;39;20276;-65
2021/04/22 09:57:34;;;;;;;7.65;2.67;;;;;;;10.15;66.99;102642.03;3592757;39;20305;-67
2021/04/22 10:00:04;;;;;;;8.70;2.72;;;;;;;10.17;68.29;102639.25;3592857;39;20060;-67
2021/04/22 10:02:41;;;;;;;8.35;2.33;;;;;;;10.24;67.81;102640.63;3591426;39;20055;-67
2021/04/22 10:05:16;;;;;;;9.40;2.78;;;;;;;10.40;70.04;102637.06;3590580;39;20064;-64
2021/04/22 10:07:43;;;;;;;6.13;2.63;;;;;;;10.65;67.47;102647.25;3590244;39;20063;-65
2021/04/22 10:10:15;;;;;;;9.43;2.88;;;;;;;10.31;67.70;102658.16;3589753;39;20046;-66
2021/04/22 10:12:41;;;;;;;13.32;3.10;;;;;;;10.40;70.70;102655.91;3590131;39;20058;-66
2021/04/22 10:15:13;;;;;;;7.35;3.15;;;;;;;10.84;68.12;102652.38;3589371;39;20088;-64
2021/04/22 10:17:39;;;;;;;12.18;2.65;;;;;;;10.77;66.62;102641.09;3590957;39;20032;-64
2021/04/22 10:20:09;;;;;;;8.32;2.58;;;;;;;11.25;67.02;102650.75;3590476;39;20109;-66
2021/04/22 10:22:37;;;;;;;9.57;3.25;;;;;;;10.97;68.97;102652.50;3592677;39;20163;-64
2021/04/22 10:25:07;;;;;;;12.48;3.30;;;;;;;10.96;70.56;102653.44;3592476;39;20391;-65
2021/04/22 10:27:33;;;;;;;11.93;2.72;;;;;;;10.64;73.24;102658.97;3592401;39;20351;-64
2021/04/22 10:30:04;;;;;;;12.45;3.15;;;;;;;10.52;74.59;102668.63;3593355;39;20055;-64
2021/04/22 10:32:30;;;;;;;8.88;2.78;;;;;;;10.61;72.65;102659.16;3582954;40;20055;-64
2021/04/22 10:34:56;;;;;;;9.68;2.83;;;;;;;10.99;73.76;102655.94;3583198;40;20048;-65
2021/04/22 10:37:25;;;;;;;9.93;2.40;;;;;;;11.18;69.17;102656.53;3583189;40;20064;-64
2021/04/22 10:39:54;;;;;;;11.10;3.35;;;;;;;10.95;66.90;102643.63;3582758;40;20056;-65
2021/04/22 10:42:21;;;;;;;10.25;2.80;;;;;;;11.21;68.24;102650.94;3582104;40;20065;-65
2021/04/22 10:44:49;;;;;;;5.43;2.35;;;;;;;11.28;68.88;102655.94;3581965;40;20050;-65
2021/04/22 10:47:16;;;;;;;9.55;2.65;;;;;;;11.21;71.03;102650.09;3582445;40;20063;-66
2021/04/22 10:49:42;;;;;;;14.93;2.78;;;;;;;11.00;72.34;102645.06;3581443;40;20041;-66
2021/04/22 10:52:09;;;;;;;8.60;2.97;;;;;;;10.97;73.91;102647.97;3580810;40;20047;-66
2021/04/22 10:54:38;;;;;;;11.45;2.92;;;;;;;10.60;74.11;102652.91;3581470;40;20059;-65
2021/04/22 10:57:07;;;;;;;8.13;2.70;;;;;;;10.41;75.24;102644.16;3579836;40;20057;-66
2021/04/22 10:59:34;;;;;;;12.02;3.05;;;;;;;10.55;77.55;102646.06;3581264;40;20082;-66
2021/04/22 11:02:15;;;;;;;11.38;2.80;;;;;;;10.41;75.46;102655.81;3581417;40;20045;-66
2021/04/22 11:04:41;;;;;;;13.85;2.67;;;;;;;11.43;73.91;102640.66;3580384;40;20055;-65
2021/04/22 11:07:18;;;;;;;9.15;2.58;;;;;;;11.65;69.17;102648.22;3580386;40;20059;-65
2021/04/22 11:09:44;;;;;;;9.65;2.40;;;;;;;11.73;66.45;102645.88;3580793;40;20379;-65
2021/04/22 11:12:11;;;;;;;11.45;2.83;;;;;;;11.42;68.90;102652.41;3581271;40;20044;-64
2021/04/22 11:14:41;;;;;;;7.10;2.35;;;;;;;11.55;68.52;102648.81;3581138;40;20142;-65
2021/04/22 11:17:09;;;;;;;7.50;2.28;;;;;;;11.66;64.57;102658.03;3581606;40;20088;-65
2021/04/22 11:19:37;;;;;;;5.15;2.15;;;;;;;11.95;62.01;102652.63;3579386;40;20130;-66
2021/04/22 11:22:12;;;;;;;6.20;2.10;;;;;;;12.48;60.60;102653.53;3572184;40;20049;-66
2021/04/22 11:24:42;;;;;;;6.80;2.65;;;;;;;11.10;67.55;102660.66;3572369;40;20046;-66
2021/04/22 11:27:11;;;;;;;7.30;2.70;;;;;;;10.60;69.95;102657.41;3571350;40;20040;-66
2021/04/22 11:29:41;;;;;;;5.72;2.10;;;;;;;11.11;68.58;102654.31;3570861;40;20053;-65
2021/04/22 11:32:20;;;;;;;;;;;;;;;11.50;65.67;102648.25;3570446;40;20084;-66
2021/04/22 11:34:48;;;;;;;7.32;2.05;;;;;;;11.82;63.95;102649.81;3570882;40;20202;-66